Time;durP1;ratioP1;P1;durP2;ratioP2;P2;SDS_P1;SDS_P2;PMS_P1;PMS_P2;Temp;Humidity;BMP_temperature;BMP_pressure;BME280_temperature;BME280_humidity;BME280_pressure;Samples;Min_cycle;Max_cycle;Signal;HPM_P1;HPM_P2
2024/04/15 00:08:08;;;;;;;8.07;1.25;;;14.70;44.20;16.60;101373.00;;;;22618430;26;20002;-39
2024/04/15 00:18:09;;;;;;;1.37;1.00;;;14.70;44.30;16.60;101337.00;;;;22639131;26;20013;-40
2024/04/15 00:28:10;;;;;;;2.00;0.90;;;14.70;44.30;16.60;101347.00;;;;22639228;26;20009;-39
2024/04/15 00:38:11;;;;;;;1.13;0.97;;;14.70;44.40;16.60;101337.00;;;;22622112;26;20405;-39
2024/04/15 00:48:15;;;;;;;1.77;1.00;;;14.70;44.40;16.60;101346.00;;;;22619220;26;20009;-42
2024/04/15 00:58:16;;;;;;;1.02;0.80;;;14.60;44.40;16.50;101331.00;;;;22618935;26;20000;-39
2024/04/15 01:08:17;;;;;;;4.00;1.10;;;14.60;44.50;16.50;101326.00;;;;22576247;26;20045;-39
2024/04/15 01:18:18;;;;;;;0.98;0.88;;;14.60;44.60;16.40;101293.00;;;;22665291;26;20055;-39
2024/04/15 01:28:20;;;;;;;2.43;0.90;;;14.60;44.70;16.50;101298.00;;;;22593219;26;20135;-39
2024/04/15 01:38:20;;;;;;;1.25;1.00;;;14.60;44.70;16.40;101251.00;;;;22624231;26;20006;-39
2024/04/15 01:48:21;;;;;;;1.87;1.00;;;14.50;44.80;16.40;101292.00;;;;22627954;26;20517;-39
2024/04/15 01:58:22;;;;;;;1.17;1.00;;;14.60;44.90;16.40;101271.00;;;;22641582;26;20224;-39
2024/04/15 02:08:22;;;;;;;3.05;1.08;;;14.50;45.60;16.40;101234.00;;;;22652812;26;20348;-39
2024/04/15 02:18:23;;;;;;;5.93;1.23;;;14.50;45.10;16.30;101222.00;;;;22663057;26;20487;-39
2024/04/15 02:28:24;;;;;;;1.60;1.00;;;14.40;45.10;16.30;101244.00;;;;22644142;26;20360;-39
2024/04/15 02:38:24;;;;;;;1.02;0.93;;;14.50;45.30;16.30;101206.00;;;;22656940;26;20104;-39
2024/04/15 02:48:25;;;;;;;1.37;0.90;;;14.40;45.30;16.30;101207.00;;;;22625494;26;19994;-38
2024/04/15 02:58:26;;;;;;;7.25;1.20;;;14.40;45.50;16.20;101199.00;;;;22615538;26;20223;-39
2024/04/15 03:08:26;;;;;;;2.80;1.00;;;14.40;45.60;16.30;101144.00;;;;22636052;26;20311;-39
2024/04/15 03:18:27;;;;;;;3.23;1.23;;;14.40;45.70;16.20;101159.00;;;;22585668;26;20247;-38
2024/04/15 03:28:28;;;;;;;2.43;1.20;;;14.30;45.70;16.10;101111.00;;;;22628625;26;19998;-39
2024/04/15 03:38:29;;;;;;;2.08;1.20;;;14.20;45.80;16.00;101042.00;;;;22606071;26;20312;-39
2024/04/15 03:48:31;;;;;;;0.83;0.80;;;14.20;45.90;16.00;101101.00;;;;22633097;26;20032;-39
2024/04/15 03:58:32;;;;;;;1.50;1.00;;;14.10;46.00;15.90;101118.00;;;;22635559;26;20229;-39
2024/04/15 04:08:32;;;;;;;1.02;0.77;;;14.10;46.00;15.80;101106.00;;;;22659520;26;20397;-39
2024/04/15 04:18:33;;;;;;;1.57;0.90;;;14.00;46.00;15.70;101079.00;;;;22679699;26;20013;-39
2024/04/15 04:28:34;;;;;;;2.40;1.13;;;14.00;46.10;15.70;101091.00;;;;22643511;26;20436;-39
2024/04/15 04:38:34;;;;;;;1.35;1.15;;;13.90;46.10;15.60;101085.00;;;;22648610;26;20523;-39
2024/04/15 04:48:35;;;;;;;2.43;1.50;;;13.80;46.20;15.50;101093.00;;;;22658764;26;20454;-39
2024/04/15 04:58:37;;;;;;;2.83;1.10;;;13.80;47.00;15.50;101124.00;;;;22638119;26;20017;-38
2024/04/15 05:08:39;;;;;;;1.27;1.17;;;13.70;46.30;15.40;101115.00;;;;22663329;26;20244;-39
2024/04/15 05:18:45;;;;;;;1.85;1.23;;;13.60;46.40;15.40;101100.00;;;;22663451;26;20002;-38
2024/04/15 05:28:46;;;;;;;3.65;1.48;;;13.60;46.80;15.50;101080.00;;;;22653540;26;20002;-39
2024/04/15 05:38:46;;;;;;;2.00;1.10;;;13.60;46.90;15.80;101061.00;;;;22652471;26;19998;-39
2024/04/15 05:48:47;;;;;;;4.07;1.25;;;13.80;47.30;16.10;101060.00;;;;22640219;26;20267;-39
2024/04/15 05:58:48;;;;;;;1.40;1.20;;;14.00;47.60;16.60;101055.00;;;;22622013;26;20482;-38
2024/04/15 06:08:49;;;;;;;3.75;1.08;;;14.40;47.70;17.10;101048.00;;;;22649315;26;20289;-39
2024/04/15 06:18:50;;;;;;;2.33;1.37;;;14.80;47.50;17.40;101027.00;;;;22596731;26;20466;-39
2024/04/15 06:28:53;;;;;;;2.03;1.55;;;15.20;47.20;17.70;101022.00;;;;22643070;26;20561;-39
2024/04/15 06:38:54;;;;;;;1.45;1.00;;;15.50;46.90;17.90;101032.00;;;;22647611;26;20079;-39
2024/04/15 06:48:54;;;;;;;1.80;1.02;;;15.80;46.90;18.20;101015.00;;;;22599652;26;20423;-39
2024/04/15 06:58:55;;;;;;;1.77;1.00;;;16.00;46.70;18.40;101013.00;;;;22637409;26;20066;-39
2024/04/15 07:08:56;;;;;;;3.87;1.53;;;16.30;46.60;18.70;100986.00;;;;22614004;26;20219;-39
2024/04/15 07:18:59;;;;;;;4.47;1.80;;;16.50;46.70;18.90;100980.00;;;;22644498;26;20436;-39
2024/04/15 07:29:00;;;;;;;1.33;1.08;;;16.70;46.90;19.20;100960.00;;;;22653419;26;20329;-40
2024/04/15 07:39:03;;;;;;;1.92;1.30;;;16.90;47.10;19.50;100963.00;;;;22642352;26;20321;-40
2024/04/15 07:49:04;;;;;;;1.63;1.52;;;17.20;47.20;19.80;100957.00;;;;22661843;26;20009;-40
2024/04/15 07:59:04;;;;;;;1.43;1.33;;;17.40;47.20;20.10;100948.00;;;;22665343;26;20444;-40
2024/04/15 08:09:07;;;;;;;5.97;1.90;;;17.70;47.30;20.30;100940.00;;;;22651519;26;20009;-40
2024/04/15 08:19:07;;;;;;;2.35;2.10;;;17.90;47.30;20.50;100935.00;;;;22632261;26;20283;-40
2024/04/15 08:29:09;;;;;;;2.17;1.97;;;18.10;47.30;20.80;100915.00;;;;22643719;26;20002;-40
2024/04/15 08:39:10;;;;;;;4.00;2.58;;;18.30;47.50;21.20;100908.00;;;;22647197;26;20299;-40
2024/04/15 08:49:16;;;;;;;19.57;18.07;;;18.60;47.50;21.40;100905.00;;;;22629986;26;20009;-40
2024/04/15 08:59:18;;;;;;;20.60;19.00;;;18.90;47.30;21.60;100887.00;;;;22611407;26;20005;-40
2024/04/15 09:09:21;;;;;;;19.83;18.42;;;19.00;47.10;22.00;100859.00;;;;22709454;26;20010;-41
2024/04/15 09:19:26;;;;;;;20.27;18.58;;;19.30;47.30;22.40;100848.00;;;;22645758;26;19998;-41
2024/04/15 09:29:31;;;;;;;20.20;18.60;;;19.60;47.00;22.70;100822.00;;;;22615065;26;19999;-41
2024/04/15 09:39:34;;;;;;;20.00;18.50;;;19.90;46.70;22.90;100805.00;;;;22604935;26;19999;-41
2024/04/15 09:49:36;;;;;;;20.65;19.05;;;20.20;46.30;23.00;100780.00;;;;22664349;26;20365;-41
2024/04/15 09:59:39;;;;;;;20.10;18.50;;;20.30;45.80;23.00;100761.00;;;;22617985;26;20034;-41
2024/04/15 10:09:40;;;;;;;19.95;18.35;;;20.40;45.60;23.10;100747.00;;;;22621271;26;20010;-43
2024/04/15 10:19:41;;;;;;;19.88;18.45;;;20.50;45.30;23.00;100731.00;;;;22554733;26;20044;-42
2024/04/15 10:29:43;;;;;;;20.52;18.67;;;20.40;45.10;23.10;100719.00;;;;22581197;26;20038;-40
2024/04/15 10:39:46;;;;;;;3.78;3.58;;;20.40;45.20;23.10;100714.00;;;;22588907;26;20074;-48
2024/04/15 10:49:47;;;;;;;1.58;1.40;;;20.50;44.90;22.90;100689.00;;;;22617212;26;20173;-40
2024/04/15 10:59:49;;;;;;;5.60;4.60;;;20.40;44.60;22.60;100692.00;;;;22609804;26;20074;-47
2024/04/15 11:09:51;;;;;;;11.73;10.68;;;20.30;44.60;22.20;100686.00;;;;22603735;26;20269;-44
2024/04/15 11:19:59;;;;;;;14.00;13.20;;;20.00;44.80;21.80;100653.00;;;;22610362;26;20356;-43
2024/04/15 11:30:03;;;;;;;12.77;12.07;;;19.60;45.50;21.70;100651.00;;;;22611991;26;20013;-46
2024/04/15 11:40:05;;;;;;;10.40;9.90;;;19.30;46.40;21.90;100605.00;;;;22618727;26;20006;-46
2024/04/15 11:50:07;;;;;;;11.70;11.10;;;19.30;47.10;22.20;100606.00;;;;22670675;26;20053;-41
2024/04/15 12:00:09;;;;;;;12.00;11.40;;;19.50;47.20;22.30;100553.00;;;;22610984;26;20414;-42
2024/04/15 12:10:11;;;;;;;14.15;13.15;;;19.60;46.80;22.20;100523.00;;;;22592274;26;20083;-43
2024/04/15 12:20:12;;;;;;;14.07;13.27;;;19.60;46.80;22.20;100486.00;;;;22647469;26;20012;-47
2024/04/15 12:30:13;;;;;;;14.77;13.87;;;19.70;47.00;22.20;100482.00;;;;22659381;26;19998;-41
2024/04/15 12:40:14;;;;;;;13.65;12.88;;;19.60;47.10;22.10;100485.00;;;;22615751;26;20013;-39
2024/04/15 12:50:15;;;;;;;12.80;12.20;;;19.60;47.10;21.90;100416.00;;;;22612614;26;19997;-43
2024/04/15 13:00:16;;;;;;;12.40;11.70;;;19.50;47.30;21.90;100382.00;;;;22643679;26;20465;-40
2024/04/15 13:10:17;;;;;;;11.38;10.77;;;19.40;47.50;21.90;100343.00;;;;22617675;26;20006;-43
2024/04/15 13:20:20;;;;;;;10.50;10.00;;;19.40;47.50;21.80;100330.00;;;;22620498;26;20021;-40
2024/04/15 13:30:20;;;;;;;10.02;9.52;;;19.40;47.60;21.80;100301.00;;;;22645164;26;20009;-41
2024/04/15 13:40:21;;;;;;;8.98;8.57;;;19.30;47.50;21.70;100278.00;;;;22621867;26;20006;-46
2024/04/15 13:50:25;;;;;;;9.77;9.25;;;19.30;47.60;21.80;100256.00;;;;22636568;26;20079;-41
2024/04/15 14:00:25;;;;;;;4.47;4.18;;;19.30;47.90;21.80;100242.00;;;;22644730;26;20041;-42
2024/04/15 14:10:26;;;;;;;14.10;13.30;;;19.30;48.10;21.70;100217.00;;;;22646606;26;20074;-46
2024/04/15 14:20:27;;;;;;;13.35;12.65;;;19.40;48.30;22.10;100167.00;;;;22658234;26;20606;-42
2024/04/15 14:30:27;;;;;;;12.88;12.07;;;19.40;48.70;22.30;100147.00;;;;22630369;26;20070;-40
2024/04/15 14:40:29;;;;;;;11.25;10.70;;;19.60;48.70;22.50;100113.00;;;;22612361;26;20017;-39
2024/04/15 14:50:30;;;;;;;10.50;9.88;;;19.80;48.50;22.60;100100.00;;;;22594022;26;20020;-40
2024/04/15 15:00:31;;;;;;;9.77;9.27;;;20.00;48.40;22.70;100073.00;;;;22637924;26;20332;-45
2024/04/15 15:10:31;;;;;;;9.25;8.85;;;20.10;47.90;22.90;100037.00;;;;22622186;26;20002;-41
2024/04/15 15:20:32;;;;;;;10.68;10.07;;;20.20;47.70;23.20;100013.00;;;;22652116;26;20010;-41
2024/04/15 15:30:33;;;;;;;12.03;11.43;;;20.30;47.80;23.50;100004.00;;;;22635699;26;20002;-41
2024/04/15 15:40:33;;;;;;;12.50;11.70;;;20.60;47.40;23.60;99970.00;;;;22653075;26;20319;-43
2024/04/15 15:50:34;;;;;;;13.15;12.25;;;20.70;46.90;23.60;99955.00;;;;22626713;26;20010;-46
2024/04/15 16:00:38;;;;;;;13.23;12.53;;;20.80;46.60;23.60;99909.00;;;;22659464;26;20114;-42
2024/04/15 16:10:39;;;;;;;2.08;1.85;;;20.90;46.50;23.60;99925.00;;;;22658864;26;20227;-44
2024/04/15 16:20:40;;;;;;;2.15;2.03;;;20.90;46.30;23.40;99870.00;;;;22665914;26;20314;-41
2024/04/15 16:30:40;;;;;;;4.68;2.60;;;20.80;46.20;23.20;99854.00;;;;22586476;26;19994;-42
2024/04/15 16:40:41;;;;;;;2.80;2.55;;;20.70;46.50;22.90;99819.00;;;;22653557;25;20052;-41
2024/04/15 16:50:42;;;;;;;16.47;15.47;;;20.50;46.70;22.80;99822.00;;;;22656255;26;20315;-40
2024/04/15 17:00:42;;;;;;;5.97;5.63;;;20.30;47.10;22.70;99788.00;;;;22626685;26;20272;-46
2024/04/15 17:10:43;;;;;;;4.97;4.60;;;20.20;47.40;22.50;99773.00;;;;22657857;26;20075;-45
2024/04/15 17:20:48;;;;;;;2.67;2.00;;;20.10;47.40;22.30;99753.00;;;;22635830;26;20224;-46
2024/04/15 17:30:48;;;;;;;1.67;1.58;;;19.90;47.10;22.00;99720.00;;;;22661739;26;20220;-43
2024/04/15 17:40:49;;;;;;;1.40;1.30;;;19.70;47.10;21.80;99729.00;;;;22647619;26;20038;-44
2024/04/15 17:50:53;;;;;;;2.58;1.52;;;19.40;47.20;21.50;99704.00;;;;22686804;26;20271;-42
2024/04/15 18:00:56;;;;;;;1.65;1.42;;;19.30;47.30;21.20;99687.00;;;;22657960;26;20452;-41
2024/04/15 18:10:57;;;;;;;2.13;1.60;;;19.00;47.30;20.90;99655.00;;;;22646744;26;20025;-44
2024/04/15 18:20:58;;;;;;;1.37;1.27;;;18.70;47.30;20.60;99630.00;;;;22652769;26;19994;-41
2024/04/15 18:30:59;;;;;;;1.60;1.50;;;18.50;47.40;20.30;99628.00;;;;22630800;26;19994;-40
2024/04/15 18:40:59;;;;;;;3.78;3.35;;;18.20;47.50;19.90;99605.00;;;;22664935;26;20221;-40
2024/04/15 18:51:00;;;;;;;4.10;3.77;;;17.90;47.70;19.50;99597.00;;;;22676748;25;20015;-40
2024/04/15 19:01:02;;;;;;;4.00;3.08;;;17.50;47.80;19.20;99576.00;;;;22635575;26;20025;-40
2024/04/15 19:11:05;;;;;;;5.35;3.00;;;17.20;47.90;18.90;99546.00;;;;22633842;26;20010;-40
2024/04/15 19:21:06;;;;;;;3.60;2.75;;;17.00;48.20;18.70;99521.00;;;;22669987;26;20380;-40
2024/04/15 19:31:07;;;;;;;3.03;2.60;;;16.70;48.40;18.40;99523.00;;;;22696804;26;20009;-40
2024/04/15 19:41:07;;;;;;;2.55;2.30;;;16.40;48.50;18.20;99506.00;;;;22679611;25;20294;-40
2024/04/15 19:51:08;;;;;;;2.30;2.10;;;16.20;48.70;18.00;99496.00;;;;22665554;26;19994;-40
2024/04/15 20:01:09;;;;;;;1.50;1.40;;;16.10;49.00;17.90;99459.00;;;;22642527;26;20224;-40
2024/04/15 20:11:13;;;;;;;2.13;1.63;;;15.90;49.40;17.80;99461.00;;;;22628845;26;20068;-40
2024/04/15 20:21:13;;;;;;;1.52;1.30;;;15.80;49.60;17.70;99457.00;;;;22629886;26;20002;-40
2024/04/15 20:31:14;;;;;;;2.28;1.90;;;15.70;49.70;17.60;99553.00;;;;22647495;26;20016;-40
2024/04/15 20:41:15;;;;;;;0.70;0.70;;;15.60;52.00;17.10;99593.00;;;;22645605;25;20934;-40
2024/04/15 20:51:16;;;;;;;0.97;0.80;;;15.20;52.20;16.40;99612.00;;;;22627534;26;20015;-39
2024/04/15 21:01:16;;;;;;;0.70;0.70;;;14.60;52.90;15.90;99624.00;;;;22606678;26;20596;-40
2024/04/15 21:11:20;;;;;;;2.30;0.95;;;14.10;52.60;15.50;99626.00;;;;22648085;26;20420;-40
2024/04/15 21:21:27;;;;;;;1.15;0.60;;;13.70;53.40;15.10;99642.00;;;;22612738;26;20564;-39
2024/04/15 21:31:27;;;;;;;0.50;0.50;;;13.30;54.90;14.70;99661.00;;;;22615664;26;20489;-38
2024/04/15 21:41:28;;;;;;;0.50;0.50;;;13.00;54.30;14.20;99677.00;;;;22655089;26;20378;-37
2024/04/15 21:51:29;;;;;;;1.60;0.60;;;12.60;54.50;13.90;99656.00;;;;22654886;26;20070;-38
2024/04/15 22:01:32;;;;;;;0.60;0.60;;;12.20;55.10;13.60;99663.00;;;;22629404;26;20718;-37
2024/04/15 22:11:33;;;;;;;1.55;0.70;;;12.00;56.30;13.50;99677.00;;;;22593778;26;20050;-37
2024/04/15 22:21:34;;;;;;;1.70;0.90;;;11.80;55.50;13.50;99685.00;;;;22632121;26;22188;-38
2024/04/15 22:31:35;;;;;;;1.38;1.05;;;11.70;56.60;13.50;99672.00;;;;22629022;26;20013;-37
2024/04/15 22:41:35;;;;;;;1.50;1.17;;;11.70;57.60;13.50;99685.00;;;;22649145;26;20030;-38
2024/04/15 22:51:36;;;;;;;2.03;1.30;;;11.60;57.60;13.50;99695.00;;;;22626305;26;20227;-38
2024/04/15 23:01:40;;;;;;;1.70;1.45;;;11.60;58.50;13.50;99708.00;;;;22645071;26;20002;-38
2024/04/15 23:11:41;;;;;;;2.25;1.20;;;11.60;58.50;13.50;99730.00;;;;22626425;26;20002;-39
2024/04/15 23:21:41;;;;;;;4.85;1.20;;;11.60;57.40;13.50;99730.00;;;;22650429;26;20457;-38
2024/04/15 23:31:45;;;;;;;1.92;1.20;;;11.70;57.60;13.50;99698.00;;;;22637088;25;20006;-39
2024/04/15 23:41:45;;;;;;;1.70;1.42;;;11.60;58.20;13.50;99733.00;;;;22648867;26;20002;-39
2024/04/15 23:51:47;;;;;;;1.77;1.53;;;11.60;57.60;13.40;99727.00;;;;22622007;26;20017;-38
